Time;durP1;ratioP1;P1;durP2;ratioP2;P2;SDS_P1;SDS_P2;PMS_P1;PMS_P2;Temp;Humidity;BMP_temperature;BMP_pressure;BME280_temperature;BME280_humidity;BME280_pressure;Samples;Min_cycle;Max_cycle;Signal;HPM_P1;HPM_P2
2022/09/21 00:01:28;;;;;;;1.45;0.80;;;12.80;72.40;;;;;;5048729;28;20028;-64
2022/09/21 00:03:56;;;;;;;2.60;0.82;;;12.80;72.50;;;;;;5033363;28;20013;-64
2022/09/21 00:06:24;;;;;;;2.35;0.98;;;12.80;72.50;;;;;;5034379;28;20018;-63
2022/09/21 00:08:50;;;;;;;0.98;0.88;;;12.80;72.50;;;;;;5047979;28;20103;-63
2022/09/21 00:11:19;;;;;;;3.63;0.80;;;12.80;72.50;;;;;;5050008;28;20036;-64
2022/09/21 00:13:45;;;;;;;1.83;0.93;;;12.70;72.60;;;;;;5030083;28;20552;-64
2022/09/21 00:16:12;;;;;;;1.13;0.90;;;12.70;72.60;;;;;;5047907;28;20033;-64
2022/09/21 00:18:38;;;;;;;1.83;0.80;;;12.70;72.60;;;;;;5046098;28;20032;-67
2022/09/21 00:21:09;;;;;;;1.35;0.90;;;12.70;72.60;;;;;;5045983;28;20029;-65
2022/09/21 00:23:35;;;;;;;1.83;0.87;;;12.70;72.70;;;;;;5050233;28;20021;-65
2022/09/21 00:26:05;;;;;;;0.85;0.70;;;12.70;73.30;;;;;;5045452;28;20029;-64
2022/09/21 00:28:31;;;;;;;2.15;0.80;;;12.70;72.70;;;;;;5049978;28;20029;-65
2022/09/21 00:31:01;;;;;;;1.30;0.80;;;12.60;72.80;;;;;;5031666;28;20033;-65
2022/09/21 00:33:27;;;;;;;1.55;0.95;;;12.70;72.90;;;;;;5039145;28;20029;-65
2022/09/21 00:35:52;;;;;;;1.20;0.82;;;12.60;72.90;;;;;;5045770;28;20037;-65
2022/09/21 00:38:18;;;;;;;2.35;0.88;;;12.60;72.90;;;;;;5048146;28;20017;-65
2022/09/21 00:40:44;;;;;;;1.52;0.80;;;12.60;73.00;;;;;;5030163;28;20055;-66
2022/09/21 00:43:14;;;;;;;1.83;1.10;;;12.60;73.20;;;;;;5030776;28;20461;-65
2022/09/21 00:45:40;;;;;;;1.00;0.77;;;12.60;73.20;;;;;;5031241;28;20040;-65
2022/09/21 00:48:06;;;;;;;2.58;0.90;;;12.50;73.20;;;;;;5029723;28;20026;-66
2022/09/21 00:50:33;;;;;;;1.75;0.80;;;12.50;73.30;;;;;;5045543;28;20033;-65
2022/09/21 00:52:59;;;;;;;2.50;0.98;;;12.50;73.30;;;;;;5031772;28;20017;-65
2022/09/21 00:55:30;;;;;;;1.88;0.80;;;12.50;73.40;;;;;;5045176;28;20021;-66
2022/09/21 00:58:01;;;;;;;1.67;0.80;;;12.50;73.50;;;;;;5048028;28;20033;-64
2022/09/21 01:00:27;;;;;;;1.23;0.90;;;12.40;73.60;;;;;;5048887;28;20425;-65
2022/09/21 01:03:00;;;;;;;2.53;0.90;;;12.40;73.80;;;;;;5045605;28;20060;-66
2022/09/21 01:05:26;;;;;;;1.73;0.80;;;12.40;73.90;;;;;;5046498;28;20844;-66
2022/09/21 01:07:52;;;;;;;2.53;0.90;;;12.40;73.80;;;;;;5049415;28;20074;-65
2022/09/21 01:10:18;;;;;;;2.25;0.90;;;12.40;73.90;;;;;;5047904;28;20032;-65
2022/09/21 01:13:03;;;;;;;2.55;0.90;;;12.30;73.80;;;;;;5040549;28;20032;-65
2022/09/21 01:15:54;;;;;;;2.17;0.90;;;12.30;73.90;;;;;;5032779;28;20240;-65
2022/09/21 01:18:58;;;;;;;1.00;0.98;;;12.30;74.00;;;;;;5029989;28;20037;-65
2022/09/21 01:21:29;;;;;;;2.00;0.93;;;12.20;74.00;;;;;;5034968;28;20084;-65
2022/09/21 01:24:19;;;;;;;1.60;0.82;;;12.20;74.00;;;;;;5044681;28;20049;-65
2022/09/21 01:27:07;;;;;;;2.65;1.00;;;12.20;74.10;;;;;;5039507;28;20052;-66
2022/09/21 01:29:37;;;;;;;1.80;0.95;;;12.10;74.20;;;;;;5046781;28;20060;-65
2022/09/21 01:32:25;;;;;;;2.42;0.93;;;12.10;74.30;;;;;;5050472;28;20017;-64
2022/09/21 01:35:12;;;;;;;2.88;0.95;;;12.00;75.00;;;;;;5045289;28;20029;-66
2022/09/21 01:37:44;;;;;;;1.48;0.90;;;12.00;74.40;;;;;;5033031;28;20053;-65
2022/09/21 01:40:19;;;;;;;1.92;0.95;;;12.00;74.50;;;;;;5041379;28;20095;-65
2022/09/21 01:42:46;;;;;;;2.38;0.80;;;12.00;74.50;;;;;;5047587;28;20032;-65
2022/09/21 01:45:16;;;;;;;2.90;1.10;;;11.90;74.50;;;;;;5044824;28;20025;-64
2022/09/21 01:47:45;;;;;;;0.85;0.80;;;11.90;74.60;;;;;;5050144;28;20070;-64
2022/09/21 01:50:13;;;;;;;2.78;1.00;;;11.90;74.70;;;;;;5047613;28;20029;-64
2022/09/21 01:52:41;;;;;;;1.95;0.80;;;11.90;74.80;;;;;;5036245;28;20065;-65
2022/09/21 01:55:13;;;;;;;3.15;1.02;;;11.90;74.70;;;;;;5045776;28;20032;-64
2022/09/21 01:57:46;;;;;;;1.70;0.80;;;11.90;74.60;;;;;;5050757;28;20507;-65
2022/09/21 02:00:12;;;;;;;;;;;11.90;74.60;;;;;;5036261;28;20021;-66
2022/09/21 02:02:49;;;;;;;1.00;0.75;;;11.90;74.50;;;;;;5044132;28;19915;-65
2022/09/21 02:05:17;;;;;;;2.35;1.00;;;11.80;74.70;;;;;;5038114;28;20091;-66
2022/09/21 02:07:43;;;;;;;1.25;0.80;;;11.80;74.80;;;;;;5035829;28;20427;-65
2022/09/21 02:10:21;;;;;;;1.15;0.63;;;11.70;74.70;;;;;;5031236;28;20033;-64
2022/09/21 02:12:51;;;;;;;0.60;0.60;;;11.70;74.80;;;;;;5033971;28;20329;-65
2022/09/21 02:15:23;;;;;;;2.63;0.85;;;11.70;75.00;;;;;;5045031;28;20045;-63
2022/09/21 02:18:05;;;;;;;1.25;0.80;;;11.60;75.00;;;;;;5051513;28;20094;-65
2022/09/21 02:20:40;;;;;;;1.45;0.90;;;11.60;75.10;;;;;;5051679;28;20105;-65
2022/09/21 02:23:11;;;;;;;1.48;0.80;;;11.60;75.00;;;;;;5035700;28;20025;-65
2022/09/21 02:25:56;;;;;;;2.30;0.88;;;11.60;75.00;;;;;;5048090;28;20101;-64
2022/09/21 02:28:28;;;;;;;3.38;0.90;;;11.60;75.10;;;;;;5032883;28;20037;-65
2022/09/21 02:31:06;;;;;;;0.70;0.70;;;11.50;75.10;;;;;;5043884;28;20079;-66
2022/09/21 02:33:58;;;;;;;2.08;0.73;;;11.50;75.10;;;;;;5040506;28;20025;-66
2022/09/21 02:36:45;;;;;;;3.72;1.00;;;11.40;75.20;;;;;;5043978;28;20039;-65
2022/09/21 02:39:22;;;;;;;1.55;0.90;;;11.30;75.30;;;;;;5042211;28;20021;-65
2022/09/21 02:41:48;;;;;;;3.58;0.80;;;11.30;75.40;;;;;;5035611;28;20024;-66
2022/09/21 02:44:34;;;;;;;2.25;0.95;;;11.20;75.40;;;;;;5051198;28;20107;-66
2022/09/21 02:47:24;;;;;;;3.28;0.88;;;11.20;75.50;;;;;;5038509;28;20036;-65
2022/09/21 02:49:57;;;;;;;1.02;0.70;;;11.20;75.60;;;;;;5031790;28;20021;-64
2022/09/21 02:52:25;;;;;;;1.63;0.73;;;11.10;75.60;;;;;;5041107;28;20032;-65
2022/09/21 02:54:52;;;;;;;2.63;0.90;;;11.10;75.70;;;;;;5036951;28;20392;-65
2022/09/21 02:57:20;;;;;;;1.95;0.73;;;11.10;75.70;;;;;;5036385;28;20033;-65
2022/09/21 02:59:46;;;;;;;2.08;0.88;;;11.20;75.70;;;;;;5042642;28;20022;-65
2022/09/21 03:02:12;;;;;;;1.02;0.65;;;11.10;75.50;;;;;;5040451;28;20480;-65
2022/09/21 03:04:40;;;;;;;2.58;0.90;;;11.10;75.70;;;;;;5049731;28;20064;-66
2022/09/21 03:07:06;;;;;;;2.08;0.90;;;11.00;75.90;;;;;;5031437;28;20045;-66
2022/09/21 03:09:32;;;;;;;1.05;0.90;;;11.00;76.00;;;;;;5031396;28;20045;-66
2022/09/21 03:11:57;;;;;;;1.00;0.70;;;11.00;76.00;;;;;;5043731;28;20064;-66
2022/09/21 03:14:23;;;;;;;1.75;0.80;;;11.00;75.90;;;;;;5043441;28;20029;-65
2022/09/21 03:16:48;;;;;;;1.45;0.70;;;11.00;75.80;;;;;;5049087;28;20227;-64
2022/09/21 03:19:14;;;;;;;1.42;0.80;;;11.00;75.80;;;;;;5049258;28;20021;-65
2022/09/21 03:21:40;;;;;;;0.75;0.70;;;11.00;75.90;;;;;;5042899;28;20028;-66
2022/09/21 03:24:06;;;;;;;1.38;0.80;;;11.00;75.90;;;;;;5034669;28;20025;-65
2022/09/21 03:26:32;;;;;;;0.90;0.70;;;11.00;76.50;;;;;;5050117;28;20033;-65
2022/09/21 03:28:57;;;;;;;1.67;0.75;;;11.00;75.80;;;;;;5050607;28;20025;-65
2022/09/21 03:31:23;;;;;;;0.77;0.70;;;10.90;75.80;;;;;;5047321;28;20152;-65
2022/09/21 03:33:49;;;;;;;1.77;0.70;;;10.90;75.90;;;;;;5050552;28;20029;-65
2022/09/21 03:36:14;;;;;;;3.22;0.80;;;10.90;75.90;;;;;;5041376;28;20542;-65
2022/09/21 03:38:40;;;;;;;1.10;0.90;;;10.90;76.00;;;;;;5029450;28;20026;-65
2022/09/21 03:41:06;;;;;;;1.83;0.77;;;10.90;76.00;;;;;;5046696;28;20024;-65
2022/09/21 03:43:31;;;;;;;2.22;1.02;;;10.80;76.00;;;;;;5034442;28;20028;-65
2022/09/21 03:45:57;;;;;;;1.52;0.82;;;10.80;76.00;;;;;;5049745;28;20118;-65
2022/09/21 03:48:23;;;;;;;2.50;0.90;;;10.80;76.00;;;;;;5050435;28;20182;-64
2022/09/21 03:50:48;;;;;;;2.30;0.70;;;10.80;76.10;;;;;;5037193;28;20025;-64
2022/09/21 03:53:15;;;;;;;1.42;0.80;;;10.80;76.10;;;;;;5046962;28;20033;-63
2022/09/21 03:55:40;;;;;;;0.70;0.70;;;10.80;76.10;;;;;;5046817;28;21718;-64
2022/09/21 03:58:07;;;;;;;1.45;0.82;;;10.80;76.10;;;;;;5035937;28;20029;-65
2022/09/21 04:00:33;;;;;;;3.05;1.17;;;10.80;76.20;;;;;;5048509;28;20021;-65
2022/09/21 04:02:58;;;;;;;1.35;0.80;;;10.80;76.20;;;;;;5029093;28;20021;-64
2022/09/21 04:05:24;;;;;;;3.03;0.90;;;10.80;76.10;;;;;;5031373;28;20569;-65
2022/09/21 04:07:50;;;;;;;2.20;0.70;;;10.70;76.80;;;;;;5035175;28;20083;-66
2022/09/21 04:10:20;;;;;;;1.90;0.98;;;10.70;76.10;;;;;;5048198;28;20505;-64
2022/09/21 04:12:46;;;;;;;2.40;0.90;;;10.70;76.30;;;;;;5043388;28;20033;-65
2022/09/21 04:15:14;;;;;;;1.35;0.90;;;10.70;76.30;;;;;;5035697;28;20021;-66
2022/09/21 04:17:40;;;;;;;1.17;0.85;;;10.70;76.30;;;;;;5030685;28;20502;-66
2022/09/21 04:20:07;;;;;;;1.88;0.90;;;10.60;76.30;;;;;;5038001;28;20017;-65
2022/09/21 04:22:34;;;;;;;2.80;1.00;;;10.60;76.30;;;;;;5038234;28;20033;-64
2022/09/21 04:25:00;;;;;;;1.10;0.93;;;10.60;76.40;;;;;;5030216;28;20480;-65
2022/09/21 04:27:26;;;;;;;2.20;0.80;;;10.60;76.40;;;;;;5046565;28;20033;-64
2022/09/21 04:29:52;;;;;;;1.20;0.80;;;10.60;76.50;;;;;;5048705;28;20032;-64
2022/09/21 04:32:18;;;;;;;2.03;0.80;;;10.50;76.40;;;;;;5049404;28;20024;-65
2022/09/21 04:34:43;;;;;;;1.27;0.70;;;10.50;76.50;;;;;;5043824;28;20022;-64
2022/09/21 04:37:12;;;;;;;1.48;0.95;;;10.50;76.60;;;;;;5049238;28;20036;-65
2022/09/21 04:39:38;;;;;;;1.38;0.75;;;10.50;76.60;;;;;;5048361;28;20070;-65
2022/09/21 04:42:04;;;;;;;1.23;0.68;;;10.50;76.70;;;;;;5045409;28;20218;-65
2022/09/21 04:44:30;;;;;;;1.60;0.90;;;10.40;76.70;;;;;;5038918;28;20113;-65
2022/09/21 04:46:59;;;;;;;2.45;0.90;;;10.40;76.80;;;;;;5047001;28;20080;-65
2022/09/21 04:49:24;;;;;;;1.92;0.77;;;10.40;76.80;;;;;;5031050;28;20018;-65
2022/09/21 04:51:50;;;;;;;2.25;1.10;;;10.50;76.90;;;;;;5035879;28;20035;-66
2022/09/21 04:54:15;;;;;;;1.65;0.70;;;10.40;76.70;;;;;;5043812;28;20142;-65
2022/09/21 04:56:41;;;;;;;1.77;0.82;;;10.40;77.50;;;;;;5049271;28;20039;-65
2022/09/21 04:59:07;;;;;;;1.23;0.73;;;10.40;76.80;;;;;;5044221;28;20033;-64
2022/09/21 05:01:32;;;;;;;2.55;0.75;;;10.40;76.80;;;;;;5041579;28;20550;-65
2022/09/21 05:04:00;;;;;;;2.28;0.90;;;10.40;76.90;;;;;;5044470;28;20025;-66
2022/09/21 05:06:27;;;;;;;2.00;0.88;;;10.40;77.00;;;;;;5047772;28;20021;-65
2022/09/21 05:11:37;;;;;;;1.60;0.90;;;10.40;76.90;;;;;;5045456;28;20033;-65
2022/09/21 05:14:03;;;;;;;2.80;0.95;;;10.40;76.80;;;;;;5052213;28;20028;-65
2022/09/21 05:16:29;;;;;;;1.58;0.80;;;10.30;76.80;;;;;;5050778;28;20029;-65
2022/09/21 05:18:55;;;;;;;3.13;1.30;;;10.30;77.00;;;;;;5044330;28;20403;-64
2022/09/21 05:21:20;;;;;;;2.03;1.08;;;10.30;77.20;;;;;;5047807;28;20021;-65
2022/09/21 05:23:46;;;;;;;1.08;0.88;;;10.30;77.20;;;;;;5043624;28;20511;-66
2022/09/21 05:26:12;;;;;;;2.88;1.20;;;10.20;77.20;;;;;;5040360;28;20036;-66
2022/09/21 05:28:38;;;;;;;2.88;1.20;;;10.20;77.10;;;;;;5044587;28;20036;-65
2022/09/21 05:31:10;;;;;;;1.58;0.85;;;10.20;77.10;;;;;;5039551;28;20450;-65
2022/09/21 05:33:41;;;;;;;1.85;1.00;;;10.30;77.10;;;;;;5039064;28;20083;-65
2022/09/21 05:36:25;;;;;;;2.15;1.00;;;10.20;76.90;;;;;;5040431;28;20017;-65
2022/09/21 05:38:50;;;;;;;1.80;0.98;;;10.20;77.00;;;;;;5042641;28;20037;-65
2022/09/21 05:41:16;;;;;;;3.53;1.10;;;10.20;77.10;;;;;;5041146;28;20597;-65
2022/09/21 05:43:42;;;;;;;2.65;1.10;;;10.10;77.20;;;;;;5044306;28;20411;-65
2022/09/21 05:46:17;;;;;;;1.58;1.20;;;10.20;77.30;;;;;;5040460;28;20032;-65
2022/09/21 05:49:21;;;;;;;2.20;1.20;;;10.20;77.20;;;;;;5040574;28;20100;-66
2022/09/21 05:52:18;;;;;;;2.20;0.90;;;10.20;77.30;;;;;;5030042;28;20055;-65
2022/09/21 05:54:56;;;;;;;1.85;1.00;;;10.10;77.30;;;;;;5047629;28;20029;-65
2022/09/21 05:57:33;;;;;;;1.92;1.17;;;10.20;77.70;;;;;;5041597;28;20518;-65
2022/09/21 06:00:18;;;;;;;2.92;1.20;;;10.30;78.30;;;;;;5045676;28;20029;-65
2022/09/21 06:03:08;;;;;;;2.35;1.10;;;10.50;78.70;;;;;;5051586;28;20024;-65
2022/09/21 06:05:33;;;;;;;3.45;1.20;;;10.80;78.90;;;;;;5050421;28;20025;-66
2022/09/21 06:07:59;;;;;;;3.88;1.35;;;11.70;76.80;;;;;;5049216;28;20492;-66
2022/09/21 06:10:27;;;;;;;2.42;1.52;;;12.50;73.50;;;;;;5046911;28;20486;-65
2022/09/21 06:12:53;;;;;;;2.78;1.40;;;12.60;72.20;;;;;;5032948;28;20029;-66
2022/09/21 06:15:18;;;;;;;2.08;1.40;;;12.50;72.10;;;;;;5032209;28;20616;-65
2022/09/21 06:17:44;;;;;;;4.13;1.50;;;12.40;72.60;;;;;;5034999;28;20508;-65
2022/09/21 06:20:10;;;;;;;3.28;1.55;;;12.30;73.10;;;;;;5032772;28;20040;-65
2022/09/21 06:22:35;;;;;;;3.17;1.50;;;12.20;73.50;;;;;;5035448;28;20087;-65
2022/09/21 06:25:01;;;;;;;2.75;1.50;;;12.10;73.90;;;;;;5048416;28;20052;-65
2022/09/21 06:27:27;;;;;;;2.17;1.45;;;12.10;74.10;;;;;;5047133;28;20082;-65
2022/09/21 06:29:53;;;;;;;3.42;1.77;;;12.10;74.30;;;;;;5041505;28;20027;-64
2022/09/21 06:32:19;;;;;;;2.55;1.50;;;12.10;74.50;;;;;;5043351;28;20028;-65
2022/09/21 06:34:44;;;;;;;3.00;1.60;;;12.10;74.60;;;;;;5041453;28;20069;-66
2022/09/21 06:37:10;;;;;;;2.03;1.42;;;12.20;74.80;;;;;;5037858;28;20056;-65
2022/09/21 06:39:36;;;;;;;2.17;1.50;;;12.30;74.90;;;;;;5039430;28;20088;-65
2022/09/21 06:42:01;;;;;;;4.65;2.38;;;12.30;74.90;;;;;;5049439;28;20074;-64
2022/09/21 06:44:28;;;;;;;5.20;2.30;;;12.40;75.10;;;;;;5043636;28;20112;-65
2022/09/21 06:46:54;;;;;;;3.08;2.00;;;12.50;75.20;;;;;;5039482;28;20514;-65
2022/09/21 06:49:19;;;;;;;2.83;1.75;;;12.60;75.20;;;;;;5037878;28;20037;-64
2022/09/21 06:51:46;;;;;;;6.00;1.80;;;12.70;75.10;;;;;;5051253;28;20029;-64
2022/09/21 06:54:12;;;;;;;2.50;1.70;;;12.80;74.90;;;;;;5045064;28;20531;-64
2022/09/21 06:56:37;;;;;;;2.53;1.77;;;12.90;74.80;;;;;;5046032;28;20036;-64
2022/09/21 06:59:03;;;;;;;2.50;1.70;;;12.90;74.80;;;;;;5043733;28;20108;-65
2022/09/21 07:01:29;;;;;;;4.82;2.13;;;13.00;74.90;;;;;;5031244;28;20040;-66
2022/09/21 07:03:54;;;;;;;3.08;1.80;;;13.10;75.10;;;;;;5048154;28;20029;-63
2022/09/21 07:06:20;;;;;;;5.30;2.25;;;13.20;75.00;;;;;;5043170;28;20073;-64
2022/09/21 07:08:52;;;;;;;2.75;1.50;;;13.20;74.80;;;;;;5032795;28;20026;-65
2022/09/21 07:11:18;;;;;;;4.10;1.65;;;13.30;74.80;;;;;;5044258;28;20053;-64
2022/09/21 07:13:44;;;;;;;2.33;1.70;;;13.30;74.60;;;;;;5046824;28;20064;-64
2022/09/21 07:16:11;;;;;;;3.67;1.88;;;13.20;74.60;;;;;;5043659;28;20112;-64
2022/09/21 07:18:38;;;;;;;4.60;1.85;;;13.30;74.80;;;;;;5049453;28;20529;-65
2022/09/21 07:21:09;;;;;;;3.83;1.80;;;13.30;74.90;;;;;;5042904;28;20025;-65
2022/09/21 07:23:35;;;;;;;3.00;1.90;;;13.40;75.00;;;;;;5034799;28;20025;-65
2022/09/21 07:26:11;;;;;;;4.10;1.65;;;13.50;74.90;;;;;;5036774;28;20044;-65
2022/09/21 07:28:37;;;;;;;4.25;1.77;;;13.50;74.80;;;;;;5034966;28;20036;-65
2022/09/21 07:31:08;;;;;;;3.50;1.85;;;13.60;74.70;;;;;;5040867;28;20024;-65
2022/09/21 07:33:34;;;;;;;6.18;2.05;;;13.60;74.60;;;;;;5044245;28;20021;-66
2022/09/21 07:36:00;;;;;;;3.72;1.58;;;13.60;74.30;;;;;;5030478;28;20033;-65
2022/09/21 07:38:26;;;;;;;3.35;1.73;;;13.70;74.30;;;;;;5034421;28;20105;-65
2022/09/21 07:40:52;;;;;;;4.45;1.83;;;13.70;74.20;;;;;;5043820;28;20047;-65
2022/09/21 07:43:18;;;;;;;5.95;2.30;;;13.70;74.30;;;;;;5047810;28;20476;-65
2022/09/21 07:45:54;;;;;;;3.47;1.83;;;13.70;74.20;;;;;;5031913;28;20021;-65
2022/09/21 07:48:21;;;;;;;3.33;2.10;;;13.80;74.30;;;;;;5044706;28;20529;-65
2022/09/21 07:50:48;;;;;;;6.57;3.20;;;13.90;74.30;;;;;;5039494;28;20034;-66
2022/09/21 07:53:15;;;;;;;5.15;3.00;;;13.90;74.10;;;;;;5043761;28;20109;-66
2022/09/21 07:55:41;;;;;;;7.40;4.00;;;13.90;74.00;;;;;;5046453;28;20096;-66
2022/09/21 08:00:52;;;;;;;7.18;3.42;;;14.00;73.90;;;;;;5042415;28;20582;-65
2022/09/21 08:03:17;;;;;;;6.05;3.60;;;14.10;73.90;;;;;;5034241;28;20061;-66
2022/09/21 08:05:43;;;;;;;6.60;3.08;;;14.10;74.30;;;;;;5032462;28;20049;-66
2022/09/21 08:08:08;;;;;;;4.68;2.65;;;14.20;73.60;;;;;;5030019;28;20116;-66
2022/09/21 08:10:34;;;;;;;6.63;2.70;;;14.20;73.40;;;;;;5037245;28;20036;-65
2022/09/21 08:13:00;;;;;;;5.68;3.28;;;14.30;73.50;;;;;;5045322;28;20040;-66
2022/09/21 08:15:26;;;;;;;6.72;2.80;;;14.30;73.30;;;;;;5039699;28;20025;-66
2022/09/21 08:17:52;;;;;;;7.00;2.90;;;14.40;73.30;;;;;;5039548;28;20123;-65
2022/09/21 08:20:19;;;;;;;7.68;2.90;;;14.40;73.00;;;;;;5033172;28;20026;-66
2022/09/21 08:22:44;;;;;;;6.00;2.83;;;14.40;72.90;;;;;;5035879;28;20029;-66
2022/09/21 08:25:10;;;;;;;6.43;3.05;;;14.40;72.80;;;;;;5038953;28;20028;-66
2022/09/21 08:27:36;;;;;;;6.03;2.90;;;14.50;72.60;;;;;;5047279;28;20029;-66
2022/09/21 08:30:03;;;;;;;9.93;3.88;;;14.50;72.70;;;;;;5036993;28;20028;-66
2022/09/21 08:32:29;;;;;;;7.63;3.70;;;14.70;72.70;;;;;;5028566;28;20017;-66
2022/09/21 08:34:54;;;;;;;6.28;3.30;;;14.70;72.30;;;;;;5047646;28;20487;-65
2022/09/21 08:37:21;;;;;;;10.95;3.55;;;14.70;72.20;;;;;;5048768;28;20040;-66
2022/09/21 08:39:47;;;;;;;7.03;3.20;;;14.70;72.00;;;;;;5043075;28;20021;-66
2022/09/21 08:42:30;;;;;;;7.13;3.20;;;14.80;71.80;;;;;;5038809;28;20025;-65
2022/09/21 08:45:03;;;;;;;5.43;3.20;;;14.90;71.40;;;;;;5040587;28;20048;-65
2022/09/21 08:47:48;;;;;;;6.70;2.80;;;14.90;71.10;;;;;;5052776;28;20040;-66
2022/09/21 08:50:45;;;;;;;4.47;1.70;;;15.00;71.20;;;;;;5043310;28;20488;-65
2022/09/21 08:53:29;;;;;;;5.82;2.35;;;15.10;71.10;;;;;;5033472;28;20022;-65
2022/09/21 08:55:56;;;;;;;5.65;2.17;;;15.10;70.70;;;;;;5050360;28;20056;-64
2022/09/21 08:58:27;;;;;;;5.07;2.08;;;15.00;70.50;;;;;;5052879;28;20027;-65
2022/09/21 09:01:16;;;;;;;5.43;2.20;;;15.00;70.50;;;;;;5051432;28;20368;-65
2022/09/21 09:04:02;;;;;;;4.72;2.50;;;15.00;70.60;;;;;;5036529;28;20746;-64
2022/09/21 09:07:03;;;;;;;3.97;2.20;;;14.90;70.40;;;;;;5033545;28;20029;-64
2022/09/21 09:09:34;;;;;;;5.15;1.90;;;14.90;70.40;;;;;;5050953;28;20029;-65
2022/09/21 09:12:28;;;;;;;7.75;3.10;;;15.00;70.50;;;;;;5044946;28;20506;-65
2022/09/21 09:15:11;;;;;;;5.50;2.60;;;15.10;70.10;;;;;;5034081;28;20033;-65
2022/09/21 09:17:47;;;;;;;4.07;2.25;;;15.20;70.00;;;;;;5034785;28;20077;-65
2022/09/21 09:20:24;;;;;;;4.38;1.88;;;15.40;69.90;;;;;;5040094;28;20074;-65
2022/09/21 09:23:19;;;;;;;4.72;2.00;;;15.40;69.30;;;;;;5042656;28;20121;-66
2022/09/21 09:25:50;;;;;;;4.60;1.98;;;15.50;68.60;;;;;;5035263;28;20041;-66
2022/09/21 09:28:33;;;;;;;3.85;1.70;;;15.60;68.40;;;;;;5044005;28;20048;-66
2022/09/21 09:31:33;;;;;;;4.75;1.90;;;15.70;67.60;;;;;;5043628;28;20028;-66
2022/09/21 09:34:10;;;;;;;4.97;2.00;;;15.70;67.40;;;;;;5035765;28;20095;-65
2022/09/21 09:36:38;;;;;;;4.47;1.70;;;15.80;67.30;;;;;;5046241;28;20029;-65
2022/09/21 09:39:15;;;;;;;3.28;1.30;;;15.90;66.30;;;;;;5041980;28;20396;-66
2022/09/21 09:41:55;;;;;;;3.35;1.30;;;15.90;66.30;;;;;;5047986;28;20511;-65
2022/09/21 09:44:44;;;;;;;4.45;1.45;;;16.00;66.10;;;;;;5051886;28;20391;-66
2022/09/21 09:47:48;;;;;;;5.65;1.83;;;16.00;66.10;;;;;;5034024;28;20093;-66
2022/09/21 09:50:29;;;;;;;3.30;1.63;;;16.10;65.10;;;;;;5037023;28;20041;-66
2022/09/21 09:53:10;;;;;;;5.53;1.73;;;16.10;64.90;;;;;;5037951;28;20060;-66
2022/09/21 09:55:39;;;;;;;3.70;1.80;;;16.20;64.70;;;;;;5050784;28;20029;-66
2022/09/21 09:58:29;;;;;;;4.00;1.90;;;16.20;64.30;;;;;;5041488;28;20296;-65
2022/09/21 10:00:55;;;;;;;7.32;2.35;;;16.30;64.40;;;;;;5042495;28;20032;-66
2022/09/21 10:03:23;;;;;;;5.25;2.00;;;16.40;64.20;;;;;;5032293;28;20388;-66
2022/09/21 10:05:49;;;;;;;6.15;1.88;;;16.50;64.00;;;;;;5035588;28;20033;-65
2022/09/21 10:08:35;;;;;;;3.70;1.20;;;16.50;63.50;;;;;;5038416;28;20207;-66
2022/09/21 10:11:02;;;;;;;4.57;1.45;;;16.60;63.60;;;;;;5040299;28;20029;-66
2022/09/21 10:13:33;;;;;;;3.92;1.65;;;16.60;62.90;;;;;;5034518;28;20025;-66
2022/09/21 10:16:16;;;;;;;6.40;2.20;;;16.80;63.10;;;;;;5038609;28;20108;-66
2022/09/21 10:18:57;;;;;;;4.95;2.00;;;16.80;62.40;;;;;;5037363;28;20449;-65
2022/09/21 10:21:26;;;;;;;5.32;1.90;;;16.80;61.70;;;;;;5046465;28;20033;-65
2022/09/21 10:23:58;;;;;;;4.65;1.60;;;16.80;61.30;;;;;;5045558;28;20418;-65
2022/09/21 10:26:30;;;;;;;4.85;1.48;;;16.90;61.70;;;;;;5037300;28;20034;-66
2022/09/21 10:28:59;;;;;;;;;;;17.00;60.80;;;;;;5045993;28;20059;-66
2022/09/21 10:31:28;;;;;;;4.07;1.63;;;17.00;59.70;;;;;;5036282;28;19959;-66
2022/09/21 10:34:10;;;;;;;3.88;1.40;;;17.10;59.30;;;;;;5041431;28;20017;-65
2022/09/21 10:36:37;;;;;;;;;;;17.10;58.80;;;;;;5045484;28;20021;-65
2022/09/21 10:39:44;;;;;;;4.10;1.40;;;17.20;58.70;;;;;;5042600;28;19955;-66
2022/09/21 10:42:18;;;;;;;3.25;1.30;;;17.40;58.70;;;;;;5011285;28;20037;-65
2022/09/21 10:44:45;;;;;;;2.83;1.10;;;17.50;57.70;;;;;;5029168;28;20488;-65
2022/09/21 10:47:37;;;;;;;1.77;0.80;;;17.70;57.00;;;;;;5033697;28;20038;-65
2022/09/21 10:50:05;;;;;;;;;;;17.90;56.70;;;;;;5039675;28;20100;-65
2022/09/21 10:52:41;;;;;;;4.95;1.60;;;18.10;57.10;;;;;;5036819;28;20368;-65
2022/09/21 10:55:21;;;;;;;3.58;1.30;;;18.30;56.60;;;;;;5031507;28;20051;-65
2022/09/21 10:57:47;;;;;;;2.10;1.10;;;18.30;56.70;;;;;;5039278;28;20112;-65
2022/09/21 11:00:34;;;;;;;2.75;1.25;;;18.40;56.70;;;;;;5035227;28;20108;-66
2022/09/21 11:03:05;;;;;;;4.53;1.48;;;18.50;56.80;;;;;;5034718;28;20018;-66
2022/09/21 11:05:40;;;;;;;2.17;1.20;;;18.60;56.60;;;;;;5043097;28;20025;-66
2022/09/21 11:08:12;;;;;;;2.05;0.90;;;18.50;56.60;;;;;;5037872;28;20033;-66
2022/09/21 11:10:53;;;;;;;1.92;0.80;;;18.50;56.70;;;;;;5046412;28;20442;-66
2022/09/21 11:13:37;;;;;;;1.92;0.95;;;18.50;56.60;;;;;;5043224;28;20484;-66
2022/09/21 11:16:11;;;;;;;2.03;0.70;;;18.50;56.90;;;;;;5038744;28;20025;-66
2022/09/21 11:18:56;;;;;;;1.77;1.10;;;18.50;56.90;;;;;;5043882;28;20487;-66
2022/09/21 11:21:35;;;;;;;3.17;1.00;;;18.30;56.80;;;;;;5033393;28;20022;-66
2022/09/21 11:24:30;;;;;;;1.05;0.70;;;18.30;57.20;;;;;;5036222;28;20021;-66
2022/09/21 11:27:00;;;;;;;1.13;0.70;;;18.20;57.40;;;;;;5042336;28;20116;-66
2022/09/21 11:29:31;;;;;;;1.40;0.80;;;18.20;57.50;;;;;;5039171;28;20119;-66
2022/09/21 11:32:31;;;;;;;2.80;1.20;;;18.20;57.40;;;;;;5039033;28;20384;-66
2022/09/21 11:35:35;;;;;;;3.60;1.55;;;18.20;57.40;;;;;;5040437;28;20024;-66
2022/09/21 11:38:19;;;;;;;3.30;1.00;;;18.30;57.40;;;;;;5015785;28;20116;-66
2022/09/21 11:41:20;;;;;;;2.92;1.10;;;18.20;57.20;;;;;;5034642;28;20032;-66
2022/09/21 11:44:12;;;;;;;2.53;0.68;;;18.20;57.00;;;;;;4988408;28;20029;-66
2022/09/21 11:46:51;;;;;;;2.88;0.80;;;18.10;56.60;;;;;;5040167;28;20033;-66
2022/09/21 11:49:35;;;;;;;1.23;0.65;;;18.00;56.90;;;;;;5037285;28;20029;-66
2022/09/21 11:52:38;;;;;;;2.45;0.50;;;18.00;56.90;;;;;;5036650;28;20021;-66
2022/09/21 11:55:16;;;;;;;1.30;0.70;;;18.00;56.90;;;;;;5041637;28;20430;-66
2022/09/21 11:58:39;;;;;;;1.42;0.63;;;18.00;56.90;;;;;;5033738;28;20025;-66
2022/09/21 12:01:28;;;;;;;;;;;18.00;56.90;;;;;;5012512;28;20398;-66
2022/09/21 12:04:31;;;;;;;1.58;0.70;;;17.90;56.70;;;;;;4982924;28;19913;-66
2022/09/21 12:07:21;;;;;;;2.15;0.68;;;17.90;56.70;;;;;;5037834;28;20531;-66
2022/09/21 12:10:16;;;;;;;3.83;0.90;;;17.90;56.70;;;;;;5036801;28;20036;-66
2022/09/21 12:12:55;;;;;;;1.77;0.60;;;17.90;56.10;;;;;;5043320;28;20025;-66
2022/09/21 12:15:56;;;;;;;2.47;0.73;;;18.00;56.40;;;;;;5040202;28;20025;-65
2022/09/21 12:18:53;;;;;;;4.35;0.90;;;18.00;55.80;;;;;;5034063;28;20037;-65
2022/09/21 12:21:33;;;;;;;2.00;0.55;;;17.80;55.30;;;;;;5042885;28;20029;-66
2022/09/21 12:24:19;;;;;;;2.85;0.90;;;17.70;55.90;;;;;;5038439;28;20024;-66
2022/09/21 12:26:49;;;;;;;1.40;0.50;;;17.80;56.10;;;;;;5040181;28;20653;-65
2022/09/21 12:29:46;;;;;;;2.17;0.60;;;17.80;56.00;;;;;;5042153;28;21445;-65
2022/09/21 12:32:22;;;;;;;2.05;0.70;;;17.80;56.00;;;;;;5038442;28;20032;-65
2022/09/21 12:34:57;;;;;;;1.58;0.60;;;17.80;55.50;;;;;;5042930;28;20406;-66
2022/09/21 12:37:32;;;;;;;2.28;0.60;;;17.70;55.70;;;;;;5042268;28;20491;-65
2022/09/21 12:40:23;;;;;;;1.70;0.70;;;17.90;55.90;;;;;;5052332;28;20025;-65
2022/09/21 12:43:15;;;;;;;1.77;0.65;;;17.90;56.00;;;;;;5042866;28;20029;-66
2022/09/21 12:45:42;;;;;;;1.00;0.52;;;17.90;55.90;;;;;;5036198;28;20101;-65
2022/09/21 12:48:11;;;;;;;2.13;0.70;;;17.90;55.80;;;;;;5052929;28;20029;-66
2022/09/21 12:50:50;;;;;;;1.35;0.60;;;17.90;55.60;;;;;;5038967;28;20033;-66
2022/09/21 12:53:23;;;;;;;1.73;0.85;;;17.90;55.80;;;;;;5044471;28;20047;-65
2022/09/21 12:55:59;;;;;;;1.92;0.50;;;17.90;55.70;;;;;;5045108;28;20530;-66
2022/09/21 12:58:44;;;;;;;2.13;0.65;;;17.90;55.60;;;;;;5042225;28;20129;-65
2022/09/21 13:01:25;;;;;;;2.65;0.60;;;17.90;55.60;;;;;;5043246;28;20032;-66
2022/09/21 13:03:56;;;;;;;1.35;0.60;;;17.90;55.70;;;;;;5038530;28;20033;-66
2022/09/21 13:06:37;;;;;;;0.60;0.45;;;18.10;55.70;;;;;;5045864;28;20036;-65
2022/09/21 13:09:04;;;;;;;3.45;0.82;;;18.30;55.40;;;;;;5037784;28;20033;-66
2022/09/21 13:11:33;;;;;;;1.30;0.50;;;18.40;53.90;;;;;;5039959;28;20113;-66
2022/09/21 13:14:02;;;;;;;1.70;0.52;;;18.70;53.90;;;;;;5042030;28;20025;-65
2022/09/21 13:16:34;;;;;;;2.65;0.65;;;19.00;53.60;;;;;;5039272;28;20025;-65
2022/09/21 13:19:02;;;;;;;1.33;0.43;;;19.20;53.10;;;;;;5040114;28;20025;-66
2022/09/21 13:21:30;;;;;;;2.05;0.63;;;19.40;52.30;;;;;;5043803;28;20029;-66
2022/09/21 13:24:02;;;;;;;1.88;0.70;;;19.40;49.50;;;;;;5040270;28;20013;-65